首页
METAR-TAF:

METAR-TAF

机场 :

安斯巴赫, 德国

纬度: 49-19N, 经度: 010-38E, 海拔: 467米

当前天气观测

该预报发布于48分钟前的23:56 UTC
风速4节,风向南转西南
温度 4°C
湿度 100%
气压 1003 hPa
能见度10公里或以上
阴天层高于600英尺

METAR: ETEB 172356Z AUTO 21004KT 9999 OVC006 04/04 A2963 RMK AO2 SLP061 T00430043 10058 20043 50008 $

时间: 01:44 (00:44 UTC)

预报

该预报发布于22分钟前的00:22 UTC
预报有效从18日的 00点(UTC)到 19日的 04点(UTC)
风速6节,风向西南
能见度10公里或以上
阴天层高于800英尺
短暂存在
从 18日的 00点(UTC)到 18日的 06点(UTC)
多云层高于1000英尺
成为
从 18日的 08点(UTC)到 18日的 09点(UTC)
风速6节,风向南转西南
能见度10公里或以上
多云层高于3000英尺

TAF: ETEB 180022Z 1800/1904 22006KT 9999 OVC008 510109 QNH2959INS TEMPO 1800/1806 BKN010 BECMG 1808/1809 21006KT 9999 BKN030 510109 QNH2970INS TX06/1812Z TN02/1804Z

超过4000个机场的气象观测和天气预报(METAR&TAF报告)。

可查询的气象台以黄色和红色小点在地图上表示。

将鼠标移到小点上方,可查看气象台名称。

然后点击查看天气观测和预报。

如需切换地图:点击带黑十字的绿色按钮放大地图;点击带横线的绿色按钮缩小地图;或者点击绿色箭头查看邻近地区的地图。


METAR-TAF: